This is the latest recevied weather packets stored in our database for station/object AJ5AG. If no packets are shown the sender has not sent any weather packets the latest 1 day(s).
| Time | Temp. | Humidity | Pressure | Rain* | Wind** | Luminosity | Snow |
|---|---|---|---|---|---|---|---|
| 1778011283 | 28.89° C | 72% | 1010.4 hPa | 0 mm | 0.45 m/s, 137° | 923 W/m² | - |
| 1778010979 | 28.33° C | 72% | 1010.7 hPa | 0 mm | 0.45 m/s, 127° | 290 W/m² | - |
| 1778010677 | 28.89° C | 73% | 1010.8 hPa | 0 mm | 0 m/s | 204 W/m² | - |
| 1778010374 | 28.89° C | 72% | 1010.9 hPa | 0 mm | 0.45 m/s, 19° | 253 W/m² | - |
| 1778010070 | 28.89° C | 73% | 1010.9 hPa | 0 mm | 0.45 m/s, 106° | 314 W/m² | - |
| 1778009767 | 28.89° C | 72% | 1011 hPa | 0 mm | 0.89 m/s, 139° | 326 W/m² | - |
| 1778009464 | 28.89° C | 72% | 1010.9 hPa | 0 mm | 0.45 m/s, 109° | 230 W/m² | - |
| 1778009163 | 28.89° C | 73% | 1011 hPa | 0 mm | 0.45 m/s, 25° | 138 W/m² | - |
| 1778008859 | 28.33° C | 74% | 1011.1 hPa | 0 mm | 0 m/s | 1036 W/m² | - |
| 1778008558 | 28.33° C | 73% | 1011 hPa | 0 mm | 0.89 m/s, 152° | 240 W/m² | - |
| 1778008256 | 28.33° C | 74% | 1010.8 hPa | 0 mm | 0 m/s | 375 W/m² | - |
| 1778007956 | 28.33° C | 73% | 1010.8 hPa | 0 mm | 1.34 m/s, 93° | 396 W/m² | - |
| 1778007652 | 28.89° C | 72% | 1010.8 hPa | 0 mm | 0 m/s | 295 W/m² | - |
| 1778007349 | 29.44° C | 71% | 1010.8 hPa | 0 mm | 0.45 m/s, 85° | 152 W/m² | - |
| 1778007045 | 28.89° C | 72% | 1011 hPa | 0 mm | 0 m/s | 750 W/m² | - |
| 1778006742 | 28.89° C | 73% | 1011 hPa | 0 mm | 0.45 m/s, 126° | 423 W/m² | - |
| 1778006439 | 28.33° C | 73% | 1011.1 hPa | 0 mm | 0.45 m/s, 184° | 367 W/m² | - |
| 1778006135 | 28.33° C | 74% | 1010.9 hPa | 0 mm | 0 m/s | 446 W/m² | - |
| 1778005833 | 27.78° C | 75% | 1011 hPa | 0 mm | 0.45 m/s, 138° | 367 W/m² | - |
| 1778005529 | 27.22° C | 78% | 1011.2 hPa | 0 mm | 0 m/s | 500 W/m² | - |
| 1778005226 | 27.22° C | 78% | 1011.3 hPa | 0 mm | 0 m/s | 150 W/m² | - |
| 1778004923 | 27.22° C | 76% | 1011.3 hPa | 0 mm | 0 m/s | 135 W/m² | - |
| 1778004620 | 27.78° C | 76% | 1011.5 hPa | 0 mm | 0 m/s | 141 W/m² | - |
| 1778004316 | 27.22° C | 75% | 1011.3 hPa | 0 mm | 0.89 m/s, 77° | 345 W/m² | - |
| 1778004020 | 26.67° C | 79% | 1011.5 hPa | 0 mm | 0.45 m/s, 109° | 362 W/m² | - |
* Rain latest hour (hover to see other rain measurements)
** Current wind speed in m/s (hover to see current wind gust speed)